<?xml version="1.0" encoding="UTF-8" standalone="no" ?>
<gpx xmlns="http://www.topografix.com/GPX/1/1" xmlns:xsi="http://www.w3.org/2001/XMLSchema-instance" xsi:schemaLocation="http://www.topografix.com/GPX/1/1 http://www.topografix.com/GPX/1/1/gpx.xsd" version="1.1" creator="VisuGPX - https://www.visugpx.com">
  <metadata>
    <name>63151montussan</name>
  </metadata>
  <trk>
    <name><![CDATA[bacalan montussan 16/158-23554274]]></name>
    <extensions>
      <line xmlns="http://www.topografix.com/GPX/gpx_style/0/2">
        <color>0000FF</color>
        <opacity>0.75</opacity>
        <width>4</width>
        <dasharray>20</dasharray>
          <extensions>
            <sens>1</sens>
          </extensions>
      </line>
    </extensions>
    <trkseg>
      <trkpt lat="44.86014" lon="-0.55416">
        <ele>5</ele>
        <time>2026-03-14T21:37:04Z</time>
      </trkpt>
      <trkpt lat="44.86009" lon="-0.55411">
        <ele>5</ele>
        <time>2026-03-14T21:37:05Z</time>
      </trkpt>
      <trkpt lat="44.86003" lon="-0.55404">
        <ele>5</ele>
        <time>2026-03-14T21:37:06Z</time>
      </trkpt>
      <trkpt lat="44.86001" lon="-0.55401">
        <ele>5</ele>
        <time>2026-03-14T21:37:07Z</time>
      </trkpt>
      <trkpt lat="44.85999" lon="-0.554">
        <ele>5</ele>
        <time>2026-03-14T21:37:07Z</time>
      </trkpt>
      <trkpt lat="44.85997" lon="-0.55398">
        <ele>5</ele>
        <time>2026-03-14T21:37:08Z</time>
      </trkpt>
      <trkpt lat="44.86002" lon="-0.55389">
        <ele>5</ele>
        <time>2026-03-14T21:37:09Z</time>
      </trkpt>
      <trkpt lat="44.86004" lon="-0.55385">
        <ele>5</ele>
        <time>2026-03-14T21:37:10Z</time>
      </trkpt>
      <trkpt lat="44.85987" lon="-0.55363">
        <ele>5</ele>
        <time>2026-03-14T21:37:14Z</time>
      </trkpt>
      <trkpt lat="44.85983" lon="-0.55359">
        <ele>5</ele>
        <time>2026-03-14T21:37:15Z</time>
      </trkpt>
      <trkpt lat="44.85971" lon="-0.55347">
        <ele>5</ele>
        <time>2026-03-14T21:37:17Z</time>
      </trkpt>
      <trkpt lat="44.85971" lon="-0.55347">
        <ele>5</ele>
        <time>2026-03-14T21:37:17Z</time>
      </trkpt>
      <trkpt lat="44.85864" lon="-0.55242">
        <ele>3</ele>
        <time>2026-03-14T21:37:41Z</time>
      </trkpt>
      <trkpt lat="44.8582" lon="-0.55198">
        <ele>3</ele>
        <time>2026-03-14T21:37:50Z</time>
      </trkpt>
      <trkpt lat="44.85777" lon="-0.55152">
        <ele>3</ele>
        <time>2026-03-14T21:38:00Z</time>
      </trkpt>
      <trkpt lat="44.85655" lon="-0.55019">
        <ele>5.1</ele>
        <time>2026-03-14T21:38:27Z</time>
      </trkpt>
      <trkpt lat="44.85655" lon="-0.55019">
        <ele>5.1</ele>
        <time>2026-03-14T21:38:27Z</time>
      </trkpt>
      <trkpt lat="44.85628" lon="-0.54993">
        <ele>2</ele>
        <time>2026-03-14T21:38:33Z</time>
      </trkpt>
      <trkpt lat="44.85611" lon="-0.54975">
        <ele>3</ele>
        <time>2026-03-14T21:38:37Z</time>
      </trkpt>
      <trkpt lat="44.8561" lon="-0.54974">
        <ele>3</ele>
        <time>2026-03-14T21:38:37Z</time>
      </trkpt>
      <trkpt lat="44.85606" lon="-0.5497">
        <ele>4</ele>
        <time>2026-03-14T21:38:38Z</time>
      </trkpt>
      <trkpt lat="44.85602" lon="-0.54969">
        <ele>4</ele>
        <time>2026-03-14T21:38:39Z</time>
      </trkpt>
      <trkpt lat="44.85597" lon="-0.54973">
        <ele>4</ele>
        <time>2026-03-14T21:38:40Z</time>
      </trkpt>
      <trkpt lat="44.85593" lon="-0.54968">
        <ele>4</ele>
        <time>2026-03-14T21:38:41Z</time>
      </trkpt>
      <trkpt lat="44.85587" lon="-0.54962">
        <ele>5</ele>
        <time>2026-03-14T21:38:42Z</time>
      </trkpt>
      <trkpt lat="44.85583" lon="-0.54959">
        <ele>5</ele>
        <time>2026-03-14T21:38:43Z</time>
      </trkpt>
      <trkpt lat="44.85609" lon="-0.54911">
        <ele>4</ele>
        <time>2026-03-14T21:38:50Z</time>
      </trkpt>
      <trkpt lat="44.85651" lon="-0.54834">
        <ele>3</ele>
        <time>2026-03-14T21:39:03Z</time>
      </trkpt>
      <trkpt lat="44.85672" lon="-0.54798">
        <ele>3</ele>
        <time>2026-03-14T21:39:09Z</time>
      </trkpt>
      <trkpt lat="44.85679" lon="-0.54787">
        <ele>3</ele>
        <time>2026-03-14T21:39:10Z</time>
      </trkpt>
      <trkpt lat="44.85673" lon="-0.54779">
        <ele>4</ele>
        <time>2026-03-14T21:39:12Z</time>
      </trkpt>
      <trkpt lat="44.855" lon="-0.54479">
        <ele>3</ele>
        <time>2026-03-14T21:40:01Z</time>
      </trkpt>
      <trkpt lat="44.85425" lon="-0.54352">
        <ele>4</ele>
        <time>2026-03-14T21:40:22Z</time>
      </trkpt>
      <trkpt lat="44.85403" lon="-0.5433">
        <ele>4</ele>
        <time>2026-03-14T21:40:26Z</time>
      </trkpt>
      <trkpt lat="44.85388" lon="-0.54323">
        <ele>4</ele>
        <time>2026-03-14T21:40:29Z</time>
      </trkpt>
      <trkpt lat="44.85389" lon="-0.54316">
        <ele>4</ele>
        <time>2026-03-14T21:40:30Z</time>
      </trkpt>
      <trkpt lat="44.85389" lon="-0.54297">
        <ele>4</ele>
        <time>2026-03-14T21:40:32Z</time>
      </trkpt>
      <trkpt lat="44.85388" lon="-0.54291">
        <ele>4</ele>
        <time>2026-03-14T21:40:33Z</time>
      </trkpt>
      <trkpt lat="44.85372" lon="-0.54251">
        <ele>4</ele>
        <time>2026-03-14T21:40:39Z</time>
      </trkpt>
      <trkpt lat="44.85367" lon="-0.54235">
        <ele>4</ele>
        <time>2026-03-14T21:40:41Z</time>
      </trkpt>
      <trkpt lat="44.85362" lon="-0.54217">
        <ele>4</ele>
        <time>2026-03-14T21:40:44Z</time>
      </trkpt>
      <trkpt lat="44.8536" lon="-0.54197">
        <ele>4</ele>
        <time>2026-03-14T21:40:46Z</time>
      </trkpt>
      <trkpt lat="44.85357" lon="-0.54172">
        <ele>5</ele>
        <time>2026-03-14T21:40:49Z</time>
      </trkpt>
      <trkpt lat="44.85313" lon="-0.542">
        <ele>4</ele>
        <time>2026-03-14T21:40:58Z</time>
      </trkpt>
      <trkpt lat="44.85277" lon="-0.54219">
        <ele>4</ele>
        <time>2026-03-14T21:41:05Z</time>
      </trkpt>
      <trkpt lat="44.85262" lon="-0.54086">
        <ele>6</ele>
        <time>2026-03-14T21:41:22Z</time>
      </trkpt>
      <trkpt lat="44.85255" lon="-0.5403">
        <ele>5</ele>
        <time>2026-03-14T21:41:29Z</time>
      </trkpt>
      <trkpt lat="44.85253" lon="-0.54022">
        <ele>5</ele>
        <time>2026-03-14T21:41:30Z</time>
      </trkpt>
      <trkpt lat="44.85246" lon="-0.54013">
        <ele>5</ele>
        <time>2026-03-14T21:41:32Z</time>
      </trkpt>
      <trkpt lat="44.85244" lon="-0.53989">
        <ele>5</ele>
        <time>2026-03-14T21:41:35Z</time>
      </trkpt>
      <trkpt lat="44.85243" lon="-0.53983">
        <ele>5</ele>
        <time>2026-03-14T21:41:36Z</time>
      </trkpt>
      <trkpt lat="44.85254" lon="-0.53959">
        <ele>4</ele>
        <time>2026-03-14T21:41:39Z</time>
      </trkpt>
      <trkpt lat="44.85268" lon="-0.53937">
        <ele>4</ele>
        <time>2026-03-14T21:41:43Z</time>
      </trkpt>
      <trkpt lat="44.85284" lon="-0.53917">
        <ele>4</ele>
        <time>2026-03-14T21:41:47Z</time>
      </trkpt>
      <trkpt lat="44.85296" lon="-0.53897">
        <ele>3</ele>
        <time>2026-03-14T21:41:50Z</time>
      </trkpt>
      <trkpt lat="44.85301" lon="-0.53889">
        <ele>3</ele>
        <time>2026-03-14T21:41:51Z</time>
      </trkpt>
      <trkpt lat="44.85325" lon="-0.5385">
        <ele>4</ele>
        <time>2026-03-14T21:41:58Z</time>
      </trkpt>
      <trkpt lat="44.85331" lon="-0.53841">
        <ele>4</ele>
        <time>2026-03-14T21:41:59Z</time>
      </trkpt>
      <trkpt lat="44.85355" lon="-0.53801">
        <ele>3</ele>
        <time>2026-03-14T21:42:06Z</time>
      </trkpt>
      <trkpt lat="44.8538" lon="-0.53761">
        <ele>3</ele>
        <time>2026-03-14T21:42:13Z</time>
      </trkpt>
      <trkpt lat="44.85373" lon="-0.53751">
        <ele>2</ele>
        <time>2026-03-14T21:42:15Z</time>
      </trkpt>
      <trkpt lat="44.85373" lon="-0.5375">
        <ele>2</ele>
        <time>2026-03-14T21:42:15Z</time>
      </trkpt>
      <trkpt lat="44.85371" lon="-0.53745">
        <ele>2</ele>
        <time>2026-03-14T21:42:15Z</time>
      </trkpt>
      <trkpt lat="44.85363" lon="-0.53446">
        <ele>2</ele>
        <time>2026-03-14T21:42:53Z</time>
      </trkpt>
      <trkpt lat="44.85361" lon="-0.53383">
        <ele>2</ele>
        <time>2026-03-14T21:43:01Z</time>
      </trkpt>
      <trkpt lat="44.85364" lon="-0.53383">
        <ele>2</ele>
        <time>2026-03-14T21:43:02Z</time>
      </trkpt>
      <trkpt lat="44.85366" lon="-0.53382">
        <ele>2</ele>
        <time>2026-03-14T21:43:02Z</time>
      </trkpt>
      <trkpt lat="44.85379" lon="-0.53379">
        <ele>3</ele>
        <time>2026-03-14T21:43:04Z</time>
      </trkpt>
      <trkpt lat="44.85387" lon="-0.53381">
        <ele>3</ele>
        <time>2026-03-14T21:43:06Z</time>
      </trkpt>
      <trkpt lat="44.85396" lon="-0.53381">
        <ele>3</ele>
        <time>2026-03-14T21:43:07Z</time>
      </trkpt>
      <trkpt lat="44.85403" lon="-0.53379">
        <ele>4</ele>
        <time>2026-03-14T21:43:09Z</time>
      </trkpt>
      <trkpt lat="44.85416" lon="-0.5338">
        <ele>4</ele>
        <time>2026-03-14T21:43:11Z</time>
      </trkpt>
      <trkpt lat="44.85433" lon="-0.53377">
        <ele>4</ele>
        <time>2026-03-14T21:43:14Z</time>
      </trkpt>
      <trkpt lat="44.85439" lon="-0.53378">
        <ele>4</ele>
        <time>2026-03-14T21:43:15Z</time>
      </trkpt>
      <trkpt lat="44.85481" lon="-0.53378">
        <ele>4</ele>
        <time>2026-03-14T21:43:23Z</time>
      </trkpt>
      <trkpt lat="44.85491" lon="-0.53388">
        <ele>4</ele>
        <time>2026-03-14T21:43:25Z</time>
      </trkpt>
      <trkpt lat="44.85518" lon="-0.53386">
        <ele>4</ele>
        <time>2026-03-14T21:43:30Z</time>
      </trkpt>
      <trkpt lat="44.85518" lon="-0.53315">
        <ele>4</ele>
        <time>2026-03-14T21:43:38Z</time>
      </trkpt>
      <trkpt lat="44.85518" lon="-0.53312">
        <ele>4</ele>
        <time>2026-03-14T21:43:39Z</time>
      </trkpt>
      <trkpt lat="44.85518" lon="-0.53275">
        <ele>4</ele>
        <time>2026-03-14T21:43:44Z</time>
      </trkpt>
      <trkpt lat="44.8552" lon="-0.53234">
        <ele>4</ele>
        <time>2026-03-14T21:43:49Z</time>
      </trkpt>
      <trkpt lat="44.85521" lon="-0.53219">
        <ele>5</ele>
        <time>2026-03-14T21:43:51Z</time>
      </trkpt>
      <trkpt lat="44.85523" lon="-0.53159">
        <ele>6</ele>
        <time>2026-03-14T21:43:58Z</time>
      </trkpt>
      <trkpt lat="44.85522" lon="-0.53124">
        <ele>7</ele>
        <time>2026-03-14T21:44:03Z</time>
      </trkpt>
      <trkpt lat="44.85522" lon="-0.53118">
        <ele>7</ele>
        <time>2026-03-14T21:44:03Z</time>
      </trkpt>
      <trkpt lat="44.85515" lon="-0.53057">
        <ele>9</ele>
        <time>2026-03-14T21:44:11Z</time>
      </trkpt>
      <trkpt lat="44.85512" lon="-0.53023">
        <ele>10</ele>
        <time>2026-03-14T21:44:15Z</time>
      </trkpt>
      <trkpt lat="44.8551" lon="-0.5301">
        <ele>11</ele>
        <time>2026-03-14T21:44:17Z</time>
      </trkpt>
      <trkpt lat="44.85505" lon="-0.52974">
        <ele>12</ele>
        <time>2026-03-14T21:44:22Z</time>
      </trkpt>
      <trkpt lat="44.85499" lon="-0.5293">
        <ele>15</ele>
        <time>2026-03-14T21:44:27Z</time>
      </trkpt>
      <trkpt lat="44.85496" lon="-0.52913">
        <ele>16</ele>
        <time>2026-03-14T21:44:30Z</time>
      </trkpt>
      <trkpt lat="44.8549" lon="-0.52899">
        <ele>18</ele>
        <time>2026-03-14T21:44:32Z</time>
      </trkpt>
      <trkpt lat="44.85467" lon="-0.52845">
        <ele>25</ele>
        <time>2026-03-14T21:44:40Z</time>
      </trkpt>
      <trkpt lat="44.85463" lon="-0.52834">
        <ele>26</ele>
        <time>2026-03-14T21:44:41Z</time>
      </trkpt>
      <trkpt lat="44.85453" lon="-0.52809">
        <ele>29</ele>
        <time>2026-03-14T21:44:45Z</time>
      </trkpt>
      <trkpt lat="44.85442" lon="-0.52794">
        <ele>32</ele>
        <time>2026-03-14T21:44:48Z</time>
      </trkpt>
      <trkpt lat="44.85434" lon="-0.52786">
        <ele>33</ele>
        <time>2026-03-14T21:44:49Z</time>
      </trkpt>
      <trkpt lat="44.85404" lon="-0.52761">
        <ele>36</ele>
        <time>2026-03-14T21:44:56Z</time>
      </trkpt>
      <trkpt lat="44.85394" lon="-0.52751">
        <ele>38</ele>
        <time>2026-03-14T21:44:58Z</time>
      </trkpt>
      <trkpt lat="44.85376" lon="-0.5273">
        <ele>41</ele>
        <time>2026-03-14T21:45:02Z</time>
      </trkpt>
      <trkpt lat="44.85371" lon="-0.52724">
        <ele>42</ele>
        <time>2026-03-14T21:45:03Z</time>
      </trkpt>
      <trkpt lat="44.85367" lon="-0.52718">
        <ele>43</ele>
        <time>2026-03-14T21:45:04Z</time>
      </trkpt>
      <trkpt lat="44.85333" lon="-0.52643">
        <ele>45</ele>
        <time>2026-03-14T21:45:15Z</time>
      </trkpt>
      <trkpt lat="44.85308" lon="-0.52591">
        <ele>48</ele>
        <time>2026-03-14T21:45:23Z</time>
      </trkpt>
      <trkpt lat="44.8529" lon="-0.52533">
        <ele>54</ele>
        <time>2026-03-14T21:45:31Z</time>
      </trkpt>
      <trkpt lat="44.85263" lon="-0.5244">
        <ele>61</ele>
        <time>2026-03-14T21:45:44Z</time>
      </trkpt>
      <trkpt lat="44.85236" lon="-0.52457">
        <ele>60</ele>
        <time>2026-03-14T21:45:49Z</time>
      </trkpt>
      <trkpt lat="44.8519" lon="-0.52481">
        <ele>62</ele>
        <time>2026-03-14T21:45:58Z</time>
      </trkpt>
      <trkpt lat="44.85176" lon="-0.52488">
        <ele>62</ele>
        <time>2026-03-14T21:46:00Z</time>
      </trkpt>
      <trkpt lat="44.85172" lon="-0.52489">
        <ele>62</ele>
        <time>2026-03-14T21:46:01Z</time>
      </trkpt>
      <trkpt lat="44.85168" lon="-0.52488">
        <ele>63</ele>
        <time>2026-03-14T21:46:02Z</time>
      </trkpt>
      <trkpt lat="44.8516" lon="-0.52438">
        <ele>62</ele>
        <time>2026-03-14T21:46:08Z</time>
      </trkpt>
      <trkpt lat="44.85154" lon="-0.52408">
        <ele>62</ele>
        <time>2026-03-14T21:46:12Z</time>
      </trkpt>
      <trkpt lat="44.85138" lon="-0.52337">
        <ele>63</ele>
        <time>2026-03-14T21:46:22Z</time>
      </trkpt>
      <trkpt lat="44.85136" lon="-0.52299">
        <ele>65</ele>
        <time>2026-03-14T21:46:27Z</time>
      </trkpt>
      <trkpt lat="44.85134" lon="-0.52285">
        <ele>66</ele>
        <time>2026-03-14T21:46:28Z</time>
      </trkpt>
      <trkpt lat="44.85169" lon="-0.52263">
        <ele>67</ele>
        <time>2026-03-14T21:46:35Z</time>
      </trkpt>
      <trkpt lat="44.85165" lon="-0.52241">
        <ele>68</ele>
        <time>2026-03-14T21:46:38Z</time>
      </trkpt>
      <trkpt lat="44.85124" lon="-0.52025">
        <ele>70</ele>
        <time>2026-03-14T21:47:06Z</time>
      </trkpt>
      <trkpt lat="44.85116" lon="-0.51979">
        <ele>70</ele>
        <time>2026-03-14T21:47:12Z</time>
      </trkpt>
      <trkpt lat="44.85088" lon="-0.51824">
        <ele>67</ele>
        <time>2026-03-14T21:47:32Z</time>
      </trkpt>
      <trkpt lat="44.85078" lon="-0.51761">
        <ele>68</ele>
        <time>2026-03-14T21:47:41Z</time>
      </trkpt>
      <trkpt lat="44.85075" lon="-0.51758">
        <ele>68</ele>
        <time>2026-03-14T21:47:41Z</time>
      </trkpt>
      <trkpt lat="44.85073" lon="-0.51752">
        <ele>68</ele>
        <time>2026-03-14T21:47:42Z</time>
      </trkpt>
      <trkpt lat="44.85073" lon="-0.51746">
        <ele>69</ele>
        <time>2026-03-14T21:47:43Z</time>
      </trkpt>
      <trkpt lat="44.85074" lon="-0.51742">
        <ele>69</ele>
        <time>2026-03-14T21:47:43Z</time>
      </trkpt>
      <trkpt lat="44.85075" lon="-0.51738">
        <ele>69</ele>
        <time>2026-03-14T21:47:44Z</time>
      </trkpt>
      <trkpt lat="44.85073" lon="-0.51729">
        <ele>69</ele>
        <time>2026-03-14T21:47:45Z</time>
      </trkpt>
      <trkpt lat="44.85071" lon="-0.51719">
        <ele>69</ele>
        <time>2026-03-14T21:47:46Z</time>
      </trkpt>
      <trkpt lat="44.85067" lon="-0.5171">
        <ele>69</ele>
        <time>2026-03-14T21:47:48Z</time>
      </trkpt>
      <trkpt lat="44.85065" lon="-0.51707">
        <ele>69</ele>
        <time>2026-03-14T21:47:48Z</time>
      </trkpt>
      <trkpt lat="44.85061" lon="-0.51701">
        <ele>70</ele>
        <time>2026-03-14T21:47:49Z</time>
      </trkpt>
      <trkpt lat="44.85053" lon="-0.51694">
        <ele>70</ele>
        <time>2026-03-14T21:47:51Z</time>
      </trkpt>
      <trkpt lat="44.85007" lon="-0.51663">
        <ele>72</ele>
        <time>2026-03-14T21:48:00Z</time>
      </trkpt>
      <trkpt lat="44.84948" lon="-0.51628">
        <ele>72</ele>
        <time>2026-03-14T21:48:11Z</time>
      </trkpt>
      <trkpt lat="44.84975" lon="-0.51496">
        <ele>70</ele>
        <time>2026-03-14T21:48:29Z</time>
      </trkpt>
      <trkpt lat="44.84997" lon="-0.5137">
        <ele>69</ele>
        <time>2026-03-14T21:48:45Z</time>
      </trkpt>
      <trkpt lat="44.84999" lon="-0.51362">
        <ele>69</ele>
        <time>2026-03-14T21:48:46Z</time>
      </trkpt>
      <trkpt lat="44.85001" lon="-0.51348">
        <ele>69</ele>
        <time>2026-03-14T21:48:48Z</time>
      </trkpt>
      <trkpt lat="44.85004" lon="-0.51312">
        <ele>68</ele>
        <time>2026-03-14T21:48:53Z</time>
      </trkpt>
      <trkpt lat="44.85004" lon="-0.51251">
        <ele>67</ele>
        <time>2026-03-14T21:49:00Z</time>
      </trkpt>
      <trkpt lat="44.85004" lon="-0.51204">
        <ele>67</ele>
        <time>2026-03-14T21:49:06Z</time>
      </trkpt>
      <trkpt lat="44.85006" lon="-0.51195">
        <ele>67</ele>
        <time>2026-03-14T21:49:07Z</time>
      </trkpt>
      <trkpt lat="44.85005" lon="-0.51139">
        <ele>67</ele>
        <time>2026-03-14T21:49:14Z</time>
      </trkpt>
      <trkpt lat="44.85005" lon="-0.51101">
        <ele>66</ele>
        <time>2026-03-14T21:49:19Z</time>
      </trkpt>
      <trkpt lat="44.85004" lon="-0.51089">
        <ele>66</ele>
        <time>2026-03-14T21:49:21Z</time>
      </trkpt>
      <trkpt lat="44.85004" lon="-0.51089">
        <ele>66</ele>
        <time>2026-03-14T21:49:21Z</time>
      </trkpt>
      <trkpt lat="44.85002" lon="-0.51068">
        <ele>66</ele>
        <time>2026-03-14T21:49:23Z</time>
      </trkpt>
      <trkpt lat="44.84995" lon="-0.51012">
        <ele>66</ele>
        <time>2026-03-14T21:49:31Z</time>
      </trkpt>
      <trkpt lat="44.84991" lon="-0.5098">
        <ele>66</ele>
        <time>2026-03-14T21:49:35Z</time>
      </trkpt>
      <trkpt lat="44.84986" lon="-0.50948">
        <ele>66</ele>
        <time>2026-03-14T21:49:39Z</time>
      </trkpt>
      <trkpt lat="44.84983" lon="-0.50933">
        <ele>67</ele>
        <time>2026-03-14T21:49:41Z</time>
      </trkpt>
      <trkpt lat="44.84982" lon="-0.50925">
        <ele>67</ele>
        <time>2026-03-14T21:49:42Z</time>
      </trkpt>
      <trkpt lat="44.8498" lon="-0.50908">
        <ele>67</ele>
        <time>2026-03-14T21:49:44Z</time>
      </trkpt>
      <trkpt lat="44.84979" lon="-0.509">
        <ele>67</ele>
        <time>2026-03-14T21:49:45Z</time>
      </trkpt>
      <trkpt lat="44.84979" lon="-0.50899">
        <ele>67</ele>
        <time>2026-03-14T21:49:45Z</time>
      </trkpt>
      <trkpt lat="44.84974" lon="-0.50896">
        <ele>67</ele>
        <time>2026-03-14T21:49:46Z</time>
      </trkpt>
      <trkpt lat="44.84972" lon="-0.50893">
        <ele>67</ele>
        <time>2026-03-14T21:49:47Z</time>
      </trkpt>
      <trkpt lat="44.84968" lon="-0.50857">
        <ele>67</ele>
        <time>2026-03-14T21:49:51Z</time>
      </trkpt>
      <trkpt lat="44.84972" lon="-0.50856">
        <ele>67</ele>
        <time>2026-03-14T21:49:52Z</time>
      </trkpt>
      <trkpt lat="44.84977" lon="-0.50856">
        <ele>67</ele>
        <time>2026-03-14T21:49:53Z</time>
      </trkpt>
      <trkpt lat="44.84985" lon="-0.5085">
        <ele>67</ele>
        <time>2026-03-14T21:49:54Z</time>
      </trkpt>
      <trkpt lat="44.84976" lon="-0.50786">
        <ele>66</ele>
        <time>2026-03-14T21:50:03Z</time>
      </trkpt>
      <trkpt lat="44.8497" lon="-0.50743">
        <ele>65</ele>
        <time>2026-03-14T21:50:08Z</time>
      </trkpt>
      <trkpt lat="44.84985" lon="-0.50738">
        <ele>65</ele>
        <time>2026-03-14T21:50:11Z</time>
      </trkpt>
      <trkpt lat="44.85129" lon="-0.507">
        <ele>63</ele>
        <time>2026-03-14T21:50:37Z</time>
      </trkpt>
      <trkpt lat="44.85143" lon="-0.50806">
        <ele>61</ele>
        <time>2026-03-14T21:50:51Z</time>
      </trkpt>
      <trkpt lat="44.85145" lon="-0.50818">
        <ele>61</ele>
        <time>2026-03-14T21:50:52Z</time>
      </trkpt>
      <trkpt lat="44.85149" lon="-0.50826">
        <ele>61</ele>
        <time>2026-03-14T21:50:53Z</time>
      </trkpt>
      <trkpt lat="44.85154" lon="-0.50829">
        <ele>61</ele>
        <time>2026-03-14T21:50:54Z</time>
      </trkpt>
      <trkpt lat="44.85159" lon="-0.5083">
        <ele>60</ele>
        <time>2026-03-14T21:50:55Z</time>
      </trkpt>
      <trkpt lat="44.85165" lon="-0.50828">
        <ele>60</ele>
        <time>2026-03-14T21:50:56Z</time>
      </trkpt>
      <trkpt lat="44.85226" lon="-0.50812">
        <ele>59</ele>
        <time>2026-03-14T21:51:07Z</time>
      </trkpt>
      <trkpt lat="44.85284" lon="-0.50797">
        <ele>59</ele>
        <time>2026-03-14T21:51:18Z</time>
      </trkpt>
      <trkpt lat="44.85295" lon="-0.50792">
        <ele>59</ele>
        <time>2026-03-14T21:51:20Z</time>
      </trkpt>
      <trkpt lat="44.853" lon="-0.5079">
        <ele>59</ele>
        <time>2026-03-14T21:51:21Z</time>
      </trkpt>
      <trkpt lat="44.85305" lon="-0.50786">
        <ele>59</ele>
        <time>2026-03-14T21:51:22Z</time>
      </trkpt>
      <trkpt lat="44.85309" lon="-0.50779">
        <ele>59</ele>
        <time>2026-03-14T21:51:23Z</time>
      </trkpt>
      <trkpt lat="44.85314" lon="-0.50773">
        <ele>59</ele>
        <time>2026-03-14T21:51:24Z</time>
      </trkpt>
      <trkpt lat="44.8532" lon="-0.50769">
        <ele>59</ele>
        <time>2026-03-14T21:51:25Z</time>
      </trkpt>
      <trkpt lat="44.85327" lon="-0.50768">
        <ele>59</ele>
        <time>2026-03-14T21:51:27Z</time>
      </trkpt>
      <trkpt lat="44.85329" lon="-0.5076">
        <ele>59</ele>
        <time>2026-03-14T21:51:28Z</time>
      </trkpt>
      <trkpt lat="44.85329" lon="-0.50756">
        <ele>59</ele>
        <time>2026-03-14T21:51:28Z</time>
      </trkpt>
      <trkpt lat="44.85327" lon="-0.50705">
        <ele>59</ele>
        <time>2026-03-14T21:51:35Z</time>
      </trkpt>
      <trkpt lat="44.85327" lon="-0.50675">
        <ele>58</ele>
        <time>2026-03-14T21:51:38Z</time>
      </trkpt>
      <trkpt lat="44.85328" lon="-0.50639">
        <ele>59</ele>
        <time>2026-03-14T21:51:43Z</time>
      </trkpt>
      <trkpt lat="44.85334" lon="-0.50584">
        <ele>61</ele>
        <time>2026-03-14T21:51:50Z</time>
      </trkpt>
      <trkpt lat="44.85331" lon="-0.50581">
        <ele>61</ele>
        <time>2026-03-14T21:51:51Z</time>
      </trkpt>
      <trkpt lat="44.85332" lon="-0.50567">
        <ele>61</ele>
        <time>2026-03-14T21:51:52Z</time>
      </trkpt>
      <trkpt lat="44.85335" lon="-0.50546">
        <ele>61</ele>
        <time>2026-03-14T21:51:55Z</time>
      </trkpt>
      <trkpt lat="44.85345" lon="-0.50482">
        <ele>63</ele>
        <time>2026-03-14T21:52:03Z</time>
      </trkpt>
      <trkpt lat="44.85346" lon="-0.50472">
        <ele>63</ele>
        <time>2026-03-14T21:52:05Z</time>
      </trkpt>
      <trkpt lat="44.85349" lon="-0.50452">
        <ele>65</ele>
        <time>2026-03-14T21:52:07Z</time>
      </trkpt>
      <trkpt lat="44.85353" lon="-0.50423">
        <ele>66</ele>
        <time>2026-03-14T21:52:11Z</time>
      </trkpt>
      <trkpt lat="44.85356" lon="-0.50404">
        <ele>67</ele>
        <time>2026-03-14T21:52:13Z</time>
      </trkpt>
      <trkpt lat="44.85358" lon="-0.50387">
        <ele>67</ele>
        <time>2026-03-14T21:52:16Z</time>
      </trkpt>
      <trkpt lat="44.85375" lon="-0.50281">
        <ele>68</ele>
        <time>2026-03-14T21:52:29Z</time>
      </trkpt>
      <trkpt lat="44.85382" lon="-0.5023">
        <ele>67</ele>
        <time>2026-03-14T21:52:36Z</time>
      </trkpt>
      <trkpt lat="44.8539" lon="-0.50176">
        <ele>67</ele>
        <time>2026-03-14T21:52:43Z</time>
      </trkpt>
      <trkpt lat="44.85393" lon="-0.5015">
        <ele>66</ele>
        <time>2026-03-14T21:52:46Z</time>
      </trkpt>
      <trkpt lat="44.85394" lon="-0.50136">
        <ele>66</ele>
        <time>2026-03-14T21:52:48Z</time>
      </trkpt>
      <trkpt lat="44.85393" lon="-0.50102">
        <ele>64</ele>
        <time>2026-03-14T21:52:52Z</time>
      </trkpt>
      <trkpt lat="44.85394" lon="-0.50091">
        <ele>64</ele>
        <time>2026-03-14T21:52:54Z</time>
      </trkpt>
      <trkpt lat="44.85399" lon="-0.50067">
        <ele>63</ele>
        <time>2026-03-14T21:52:57Z</time>
      </trkpt>
      <trkpt lat="44.85403" lon="-0.50055">
        <ele>63</ele>
        <time>2026-03-14T21:52:58Z</time>
      </trkpt>
      <trkpt lat="44.85416" lon="-0.50025">
        <ele>62</ele>
        <time>2026-03-14T21:53:03Z</time>
      </trkpt>
      <trkpt lat="44.85442" lon="-0.49967">
        <ele>60</ele>
        <time>2026-03-14T21:53:12Z</time>
      </trkpt>
      <trkpt lat="44.8545" lon="-0.49947">
        <ele>60</ele>
        <time>2026-03-14T21:53:14Z</time>
      </trkpt>
      <trkpt lat="44.85456" lon="-0.49928">
        <ele>60</ele>
        <time>2026-03-14T21:53:17Z</time>
      </trkpt>
      <trkpt lat="44.85459" lon="-0.49914">
        <ele>60</ele>
        <time>2026-03-14T21:53:19Z</time>
      </trkpt>
      <trkpt lat="44.85455" lon="-0.49908">
        <ele>59</ele>
        <time>2026-03-14T21:53:20Z</time>
      </trkpt>
      <trkpt lat="44.85455" lon="-0.49906">
        <ele>60</ele>
        <time>2026-03-14T21:53:20Z</time>
      </trkpt>
      <trkpt lat="44.85453" lon="-0.49901">
        <ele>60</ele>
        <time>2026-03-14T21:53:21Z</time>
      </trkpt>
      <trkpt lat="44.85454" lon="-0.49894">
        <ele>60</ele>
        <time>2026-03-14T21:53:22Z</time>
      </trkpt>
      <trkpt lat="44.85435" lon="-0.49878">
        <ele>59</ele>
        <time>2026-03-14T21:53:26Z</time>
      </trkpt>
      <trkpt lat="44.85425" lon="-0.49874">
        <ele>59</ele>
        <time>2026-03-14T21:53:28Z</time>
      </trkpt>
      <trkpt lat="44.8543" lon="-0.49813">
        <ele>60</ele>
        <time>2026-03-14T21:53:35Z</time>
      </trkpt>
      <trkpt lat="44.85436" lon="-0.49729">
        <ele>60</ele>
        <time>2026-03-14T21:53:46Z</time>
      </trkpt>
      <trkpt lat="44.85439" lon="-0.49695">
        <ele>59</ele>
        <time>2026-03-14T21:53:50Z</time>
      </trkpt>
      <trkpt lat="44.85426" lon="-0.49682">
        <ele>58</ele>
        <time>2026-03-14T21:53:53Z</time>
      </trkpt>
      <trkpt lat="44.85429" lon="-0.49636">
        <ele>56</ele>
        <time>2026-03-14T21:53:59Z</time>
      </trkpt>
      <trkpt lat="44.85429" lon="-0.49633">
        <ele>56</ele>
        <time>2026-03-14T21:53:59Z</time>
      </trkpt>
      <trkpt lat="44.85432" lon="-0.49599">
        <ele>54</ele>
        <time>2026-03-14T21:54:04Z</time>
      </trkpt>
      <trkpt lat="44.85464" lon="-0.49606">
        <ele>54</ele>
        <time>2026-03-14T21:54:09Z</time>
      </trkpt>
      <trkpt lat="44.85468" lon="-0.49607">
        <ele>54</ele>
        <time>2026-03-14T21:54:10Z</time>
      </trkpt>
      <trkpt lat="44.8549" lon="-0.49611">
        <ele>54</ele>
        <time>2026-03-14T21:54:14Z</time>
      </trkpt>
      <trkpt lat="44.8549" lon="-0.49601">
        <ele>53</ele>
        <time>2026-03-14T21:54:15Z</time>
      </trkpt>
      <trkpt lat="44.8549" lon="-0.49601">
        <ele>53</ele>
        <time>2026-03-14T21:54:15Z</time>
      </trkpt>
      <trkpt lat="44.8549" lon="-0.49505">
        <ele>51</ele>
        <time>2026-03-14T21:54:27Z</time>
      </trkpt>
      <trkpt lat="44.85489" lon="-0.49502">
        <ele>51</ele>
        <time>2026-03-14T21:54:28Z</time>
      </trkpt>
      <trkpt lat="44.85486" lon="-0.49494">
        <ele>52</ele>
        <time>2026-03-14T21:54:29Z</time>
      </trkpt>
      <trkpt lat="44.85497" lon="-0.49368">
        <ele>51</ele>
        <time>2026-03-14T21:54:45Z</time>
      </trkpt>
      <trkpt lat="44.85497" lon="-0.49368">
        <ele>51</ele>
        <time>2026-03-14T21:54:45Z</time>
      </trkpt>
      <trkpt lat="44.85496" lon="-0.49359">
        <ele>51</ele>
        <time>2026-03-14T21:54:46Z</time>
      </trkpt>
      <trkpt lat="44.85635" lon="-0.49337">
        <ele>45</ele>
        <time>2026-03-14T21:55:11Z</time>
      </trkpt>
      <trkpt lat="44.8564" lon="-0.49336">
        <ele>44</ele>
        <time>2026-03-14T21:55:12Z</time>
      </trkpt>
      <trkpt lat="44.85656" lon="-0.49325">
        <ele>44</ele>
        <time>2026-03-14T21:55:15Z</time>
      </trkpt>
      <trkpt lat="44.85646" lon="-0.493">
        <ele>44</ele>
        <time>2026-03-14T21:55:19Z</time>
      </trkpt>
      <trkpt lat="44.85643" lon="-0.49291">
        <ele>44</ele>
        <time>2026-03-14T21:55:20Z</time>
      </trkpt>
      <trkpt lat="44.85636" lon="-0.49251">
        <ele>45</ele>
        <time>2026-03-14T21:55:25Z</time>
      </trkpt>
      <trkpt lat="44.85636" lon="-0.49247">
        <ele>45</ele>
        <time>2026-03-14T21:55:26Z</time>
      </trkpt>
      <trkpt lat="44.85637" lon="-0.49239">
        <ele>45</ele>
        <time>2026-03-14T21:55:27Z</time>
      </trkpt>
      <trkpt lat="44.85637" lon="-0.49237">
        <ele>45</ele>
        <time>2026-03-14T21:55:27Z</time>
      </trkpt>
      <trkpt lat="44.85642" lon="-0.49211">
        <ele>46</ele>
        <time>2026-03-14T21:55:30Z</time>
      </trkpt>
      <trkpt lat="44.85664" lon="-0.49108">
        <ele>48</ele>
        <time>2026-03-14T21:55:44Z</time>
      </trkpt>
      <trkpt lat="44.85667" lon="-0.4909">
        <ele>48</ele>
        <time>2026-03-14T21:55:46Z</time>
      </trkpt>
      <trkpt lat="44.85663" lon="-0.49063">
        <ele>47</ele>
        <time>2026-03-14T21:55:50Z</time>
      </trkpt>
      <trkpt lat="44.85649" lon="-0.48988">
        <ele>46</ele>
        <time>2026-03-14T21:56:00Z</time>
      </trkpt>
      <trkpt lat="44.85646" lon="-0.48931">
        <ele>46</ele>
        <time>2026-03-14T21:56:07Z</time>
      </trkpt>
      <trkpt lat="44.85637" lon="-0.48888">
        <ele>47</ele>
        <time>2026-03-14T21:56:12Z</time>
      </trkpt>
      <trkpt lat="44.85625" lon="-0.48846">
        <ele>48</ele>
        <time>2026-03-14T21:56:18Z</time>
      </trkpt>
      <trkpt lat="44.85605" lon="-0.48774">
        <ele>50</ele>
        <time>2026-03-14T21:56:28Z</time>
      </trkpt>
      <trkpt lat="44.85601" lon="-0.48745">
        <ele>50</ele>
        <time>2026-03-14T21:56:32Z</time>
      </trkpt>
      <trkpt lat="44.85597" lon="-0.48689">
        <ele>49</ele>
        <time>2026-03-14T21:56:39Z</time>
      </trkpt>
      <trkpt lat="44.85591" lon="-0.48629">
        <ele>48</ele>
        <time>2026-03-14T21:56:46Z</time>
      </trkpt>
      <trkpt lat="44.85584" lon="-0.48599">
        <ele>47</ele>
        <time>2026-03-14T21:56:50Z</time>
      </trkpt>
      <trkpt lat="44.85577" lon="-0.48584">
        <ele>47</ele>
        <time>2026-03-14T21:56:53Z</time>
      </trkpt>
      <trkpt lat="44.85568" lon="-0.48568">
        <ele>47</ele>
        <time>2026-03-14T21:56:55Z</time>
      </trkpt>
      <trkpt lat="44.85603" lon="-0.48512">
        <ele>44</ele>
        <time>2026-03-14T21:57:05Z</time>
      </trkpt>
      <trkpt lat="44.85608" lon="-0.48505">
        <ele>44</ele>
        <time>2026-03-14T21:57:06Z</time>
      </trkpt>
      <trkpt lat="44.85659" lon="-0.48424">
        <ele>44</ele>
        <time>2026-03-14T21:57:20Z</time>
      </trkpt>
      <trkpt lat="44.85665" lon="-0.48412">
        <ele>44</ele>
        <time>2026-03-14T21:57:21Z</time>
      </trkpt>
      <trkpt lat="44.85671" lon="-0.48398">
        <ele>45</ele>
        <time>2026-03-14T21:57:23Z</time>
      </trkpt>
      <trkpt lat="44.85693" lon="-0.48328">
        <ele>52</ele>
        <time>2026-03-14T21:57:33Z</time>
      </trkpt>
      <trkpt lat="44.85695" lon="-0.48323">
        <ele>53</ele>
        <time>2026-03-14T21:57:34Z</time>
      </trkpt>
      <trkpt lat="44.85699" lon="-0.4831">
        <ele>55</ele>
        <time>2026-03-14T21:57:36Z</time>
      </trkpt>
      <trkpt lat="44.85721" lon="-0.48286">
        <ele>60</ele>
        <time>2026-03-14T21:57:41Z</time>
      </trkpt>
      <trkpt lat="44.85761" lon="-0.48221">
        <ele>66</ele>
        <time>2026-03-14T21:57:51Z</time>
      </trkpt>
      <trkpt lat="44.85774" lon="-0.482">
        <ele>66</ele>
        <time>2026-03-14T21:57:55Z</time>
      </trkpt>
      <trkpt lat="44.8579" lon="-0.48179">
        <ele>66</ele>
        <time>2026-03-14T21:57:59Z</time>
      </trkpt>
      <trkpt lat="44.85811" lon="-0.48156">
        <ele>65</ele>
        <time>2026-03-14T21:58:04Z</time>
      </trkpt>
      <trkpt lat="44.8582" lon="-0.4815">
        <ele>65</ele>
        <time>2026-03-14T21:58:05Z</time>
      </trkpt>
      <trkpt lat="44.85837" lon="-0.48143">
        <ele>65</ele>
        <time>2026-03-14T21:58:08Z</time>
      </trkpt>
      <trkpt lat="44.85857" lon="-0.48129">
        <ele>65</ele>
        <time>2026-03-14T21:58:12Z</time>
      </trkpt>
      <trkpt lat="44.85866" lon="-0.48124">
        <ele>65</ele>
        <time>2026-03-14T21:58:14Z</time>
      </trkpt>
      <trkpt lat="44.85878" lon="-0.48118">
        <ele>66</ele>
        <time>2026-03-14T21:58:16Z</time>
      </trkpt>
      <trkpt lat="44.8588" lon="-0.48101">
        <ele>66</ele>
        <time>2026-03-14T21:58:19Z</time>
      </trkpt>
      <trkpt lat="44.85886" lon="-0.48083">
        <ele>66</ele>
        <time>2026-03-14T21:58:21Z</time>
      </trkpt>
      <trkpt lat="44.85899" lon="-0.48043">
        <ele>66</ele>
        <time>2026-03-14T21:58:27Z</time>
      </trkpt>
      <trkpt lat="44.85904" lon="-0.48032">
        <ele>66</ele>
        <time>2026-03-14T21:58:28Z</time>
      </trkpt>
      <trkpt lat="44.85913" lon="-0.48021">
        <ele>66</ele>
        <time>2026-03-14T21:58:30Z</time>
      </trkpt>
      <trkpt lat="44.8592" lon="-0.48015">
        <ele>66</ele>
        <time>2026-03-14T21:58:32Z</time>
      </trkpt>
      <trkpt lat="44.85936" lon="-0.48004">
        <ele>65</ele>
        <time>2026-03-14T21:58:35Z</time>
      </trkpt>
      <trkpt lat="44.85959" lon="-0.47994">
        <ele>65</ele>
        <time>2026-03-14T21:58:39Z</time>
      </trkpt>
      <trkpt lat="44.86019" lon="-0.47977">
        <ele>63</ele>
        <time>2026-03-14T21:58:50Z</time>
      </trkpt>
      <trkpt lat="44.86028" lon="-0.47977">
        <ele>63</ele>
        <time>2026-03-14T21:58:52Z</time>
      </trkpt>
      <trkpt lat="44.86034" lon="-0.47979">
        <ele>63</ele>
        <time>2026-03-14T21:58:53Z</time>
      </trkpt>
      <trkpt lat="44.86067" lon="-0.48005">
        <ele>62</ele>
        <time>2026-03-14T21:59:00Z</time>
      </trkpt>
      <trkpt lat="44.86069" lon="-0.48017">
        <ele>62</ele>
        <time>2026-03-14T21:59:01Z</time>
      </trkpt>
      <trkpt lat="44.86075" lon="-0.48032">
        <ele>62</ele>
        <time>2026-03-14T21:59:03Z</time>
      </trkpt>
      <trkpt lat="44.86089" lon="-0.48069">
        <ele>62</ele>
        <time>2026-03-14T21:59:09Z</time>
      </trkpt>
      <trkpt lat="44.86096" lon="-0.48091">
        <ele>62</ele>
        <time>2026-03-14T21:59:12Z</time>
      </trkpt>
      <trkpt lat="44.86107" lon="-0.48161">
        <ele>64</ele>
        <time>2026-03-14T21:59:21Z</time>
      </trkpt>
      <trkpt lat="44.86114" lon="-0.48199">
        <ele>63</ele>
        <time>2026-03-14T21:59:26Z</time>
      </trkpt>
      <trkpt lat="44.86124" lon="-0.48237">
        <ele>63</ele>
        <time>2026-03-14T21:59:31Z</time>
      </trkpt>
      <trkpt lat="44.86135" lon="-0.48278">
        <ele>62</ele>
        <time>2026-03-14T21:59:36Z</time>
      </trkpt>
      <trkpt lat="44.86153" lon="-0.48335">
        <ele>63</ele>
        <time>2026-03-14T21:59:44Z</time>
      </trkpt>
      <trkpt lat="44.86159" lon="-0.48355">
        <ele>63</ele>
        <time>2026-03-14T21:59:47Z</time>
      </trkpt>
      <trkpt lat="44.86167" lon="-0.4839">
        <ele>63</ele>
        <time>2026-03-14T21:59:52Z</time>
      </trkpt>
      <trkpt lat="44.86175" lon="-0.48431">
        <ele>63</ele>
        <time>2026-03-14T21:59:57Z</time>
      </trkpt>
      <trkpt lat="44.86178" lon="-0.48454">
        <ele>63</ele>
        <time>2026-03-14T22:00:00Z</time>
      </trkpt>
      <trkpt lat="44.8618" lon="-0.48495">
        <ele>63</ele>
        <time>2026-03-14T22:00:05Z</time>
      </trkpt>
      <trkpt lat="44.86182" lon="-0.48504">
        <ele>63</ele>
        <time>2026-03-14T22:00:06Z</time>
      </trkpt>
      <trkpt lat="44.86184" lon="-0.48507">
        <ele>63</ele>
        <time>2026-03-14T22:00:07Z</time>
      </trkpt>
      <trkpt lat="44.86187" lon="-0.4851">
        <ele>63</ele>
        <time>2026-03-14T22:00:07Z</time>
      </trkpt>
      <trkpt lat="44.86194" lon="-0.48512">
        <ele>63</ele>
        <time>2026-03-14T22:00:09Z</time>
      </trkpt>
      <trkpt lat="44.86199" lon="-0.48511">
        <ele>63</ele>
        <time>2026-03-14T22:00:10Z</time>
      </trkpt>
      <trkpt lat="44.86229" lon="-0.48501">
        <ele>63</ele>
        <time>2026-03-14T22:00:15Z</time>
      </trkpt>
      <trkpt lat="44.86233" lon="-0.48501">
        <ele>63</ele>
        <time>2026-03-14T22:00:16Z</time>
      </trkpt>
      <trkpt lat="44.86243" lon="-0.48506">
        <ele>63</ele>
        <time>2026-03-14T22:00:18Z</time>
      </trkpt>
      <trkpt lat="44.86256" lon="-0.48474">
        <ele>62</ele>
        <time>2026-03-14T22:00:22Z</time>
      </trkpt>
      <trkpt lat="44.86292" lon="-0.48402">
        <ele>59</ele>
        <time>2026-03-14T22:00:33Z</time>
      </trkpt>
      <trkpt lat="44.86299" lon="-0.48388">
        <ele>59</ele>
        <time>2026-03-14T22:00:36Z</time>
      </trkpt>
      <trkpt lat="44.86312" lon="-0.48362">
        <ele>58</ele>
        <time>2026-03-14T22:00:40Z</time>
      </trkpt>
      <trkpt lat="44.86318" lon="-0.48344">
        <ele>57</ele>
        <time>2026-03-14T22:00:42Z</time>
      </trkpt>
      <trkpt lat="44.86323" lon="-0.48323">
        <ele>56</ele>
        <time>2026-03-14T22:00:45Z</time>
      </trkpt>
      <trkpt lat="44.86325" lon="-0.48311">
        <ele>55</ele>
        <time>2026-03-14T22:00:46Z</time>
      </trkpt>
      <trkpt lat="44.86326" lon="-0.48297">
        <ele>55</ele>
        <time>2026-03-14T22:00:48Z</time>
      </trkpt>
      <trkpt lat="44.86327" lon="-0.48283">
        <ele>54</ele>
        <time>2026-03-14T22:00:50Z</time>
      </trkpt>
      <trkpt lat="44.86322" lon="-0.48108">
        <ele>51</ele>
        <time>2026-03-14T22:01:12Z</time>
      </trkpt>
      <trkpt lat="44.86321" lon="-0.48056">
        <ele>51</ele>
        <time>2026-03-14T22:01:19Z</time>
      </trkpt>
      <trkpt lat="44.86322" lon="-0.4804">
        <ele>51</ele>
        <time>2026-03-14T22:01:21Z</time>
      </trkpt>
      <trkpt lat="44.86328" lon="-0.48006">
        <ele>51</ele>
        <time>2026-03-14T22:01:25Z</time>
      </trkpt>
      <trkpt lat="44.86331" lon="-0.47996">
        <ele>51</ele>
        <time>2026-03-14T22:01:26Z</time>
      </trkpt>
      <trkpt lat="44.8635" lon="-0.47934">
        <ele>54</ele>
        <time>2026-03-14T22:01:35Z</time>
      </trkpt>
      <trkpt lat="44.86426" lon="-0.47751">
        <ele>68</ele>
        <time>2026-03-14T22:02:02Z</time>
      </trkpt>
      <trkpt lat="44.86434" lon="-0.47729">
        <ele>68</ele>
        <time>2026-03-14T22:02:05Z</time>
      </trkpt>
      <trkpt lat="44.86445" lon="-0.47697">
        <ele>69</ele>
        <time>2026-03-14T22:02:09Z</time>
      </trkpt>
      <trkpt lat="44.86466" lon="-0.47635">
        <ele>70</ele>
        <time>2026-03-14T22:02:18Z</time>
      </trkpt>
      <trkpt lat="44.86468" lon="-0.47626">
        <ele>70</ele>
        <time>2026-03-14T22:02:19Z</time>
      </trkpt>
      <trkpt lat="44.86488" lon="-0.47516">
        <ele>70</ele>
        <time>2026-03-14T22:02:34Z</time>
      </trkpt>
      <trkpt lat="44.86497" lon="-0.47466">
        <ele>72</ele>
        <time>2026-03-14T22:02:40Z</time>
      </trkpt>
      <trkpt lat="44.86499" lon="-0.4746">
        <ele>72</ele>
        <time>2026-03-14T22:02:41Z</time>
      </trkpt>
      <trkpt lat="44.86501" lon="-0.47456">
        <ele>73</ele>
        <time>2026-03-14T22:02:42Z</time>
      </trkpt>
      <trkpt lat="44.86506" lon="-0.4745">
        <ele>73</ele>
        <time>2026-03-14T22:02:43Z</time>
      </trkpt>
      <trkpt lat="44.86513" lon="-0.47447">
        <ele>73</ele>
        <time>2026-03-14T22:02:44Z</time>
      </trkpt>
      <trkpt lat="44.86518" lon="-0.47446">
        <ele>73</ele>
        <time>2026-03-14T22:02:45Z</time>
      </trkpt>
      <trkpt lat="44.86537" lon="-0.47445">
        <ele>72</ele>
        <time>2026-03-14T22:02:48Z</time>
      </trkpt>
      <trkpt lat="44.86538" lon="-0.47434">
        <ele>73</ele>
        <time>2026-03-14T22:02:50Z</time>
      </trkpt>
      <trkpt lat="44.86547" lon="-0.47286">
        <ele>73</ele>
        <time>2026-03-14T22:03:08Z</time>
      </trkpt>
      <trkpt lat="44.86552" lon="-0.47203">
        <ele>73</ele>
        <time>2026-03-14T22:03:19Z</time>
      </trkpt>
      <trkpt lat="44.86555" lon="-0.47203">
        <ele>73</ele>
        <time>2026-03-14T22:03:19Z</time>
      </trkpt>
      <trkpt lat="44.86561" lon="-0.47075">
        <ele>69</ele>
        <time>2026-03-14T22:03:36Z</time>
      </trkpt>
      <trkpt lat="44.86563" lon="-0.4698">
        <ele>68</ele>
        <time>2026-03-14T22:03:48Z</time>
      </trkpt>
      <trkpt lat="44.86573" lon="-0.46981">
        <ele>69</ele>
        <time>2026-03-14T22:03:49Z</time>
      </trkpt>
      <trkpt lat="44.86633" lon="-0.46912">
        <ele>70</ele>
        <time>2026-03-14T22:04:03Z</time>
      </trkpt>
      <trkpt lat="44.86665" lon="-0.46876">
        <ele>71</ele>
        <time>2026-03-14T22:04:10Z</time>
      </trkpt>
      <trkpt lat="44.86675" lon="-0.46864">
        <ele>70</ele>
        <time>2026-03-14T22:04:13Z</time>
      </trkpt>
      <trkpt lat="44.86736" lon="-0.46832">
        <ele>69</ele>
        <time>2026-03-14T22:04:24Z</time>
      </trkpt>
      <trkpt lat="44.86795" lon="-0.468">
        <ele>72</ele>
        <time>2026-03-14T22:04:36Z</time>
      </trkpt>
      <trkpt lat="44.86805" lon="-0.46797">
        <ele>73</ele>
        <time>2026-03-14T22:04:37Z</time>
      </trkpt>
      <trkpt lat="44.86815" lon="-0.46797">
        <ele>73</ele>
        <time>2026-03-14T22:04:39Z</time>
      </trkpt>
      <trkpt lat="44.86817" lon="-0.46789">
        <ele>73</ele>
        <time>2026-03-14T22:04:40Z</time>
      </trkpt>
      <trkpt lat="44.86821" lon="-0.46784">
        <ele>74</ele>
        <time>2026-03-14T22:04:41Z</time>
      </trkpt>
      <trkpt lat="44.86824" lon="-0.46783">
        <ele>74</ele>
        <time>2026-03-14T22:04:42Z</time>
      </trkpt>
      <trkpt lat="44.86845" lon="-0.46771">
        <ele>74</ele>
        <time>2026-03-14T22:04:46Z</time>
      </trkpt>
      <trkpt lat="44.86914" lon="-0.4674">
        <ele>74</ele>
        <time>2026-03-14T22:04:59Z</time>
      </trkpt>
      <trkpt lat="44.86922" lon="-0.46728">
        <ele>73</ele>
        <time>2026-03-14T22:05:01Z</time>
      </trkpt>
      <trkpt lat="44.86926" lon="-0.46711">
        <ele>73</ele>
        <time>2026-03-14T22:05:03Z</time>
      </trkpt>
      <trkpt lat="44.86934" lon="-0.46612">
        <ele>71</ele>
        <time>2026-03-14T22:05:16Z</time>
      </trkpt>
      <trkpt lat="44.86935" lon="-0.46544">
        <ele>70</ele>
        <time>2026-03-14T22:05:24Z</time>
      </trkpt>
      <trkpt lat="44.86933" lon="-0.46476">
        <ele>68</ele>
        <time>2026-03-14T22:05:33Z</time>
      </trkpt>
      <trkpt lat="44.86927" lon="-0.46386">
        <ele>66</ele>
        <time>2026-03-14T22:05:44Z</time>
      </trkpt>
      <trkpt lat="44.86915" lon="-0.4631">
        <ele>64</ele>
        <time>2026-03-14T22:05:54Z</time>
      </trkpt>
      <trkpt lat="44.8688" lon="-0.46112">
        <ele>68</ele>
        <time>2026-03-14T22:06:20Z</time>
      </trkpt>
      <trkpt lat="44.86864" lon="-0.46021">
        <ele>69</ele>
        <time>2026-03-14T22:06:32Z</time>
      </trkpt>
      <trkpt lat="44.86846" lon="-0.45927">
        <ele>68</ele>
        <time>2026-03-14T22:06:44Z</time>
      </trkpt>
      <trkpt lat="44.86832" lon="-0.45857">
        <ele>68</ele>
        <time>2026-03-14T22:06:53Z</time>
      </trkpt>
      <trkpt lat="44.86768" lon="-0.45532">
        <ele>73</ele>
        <time>2026-03-14T22:07:35Z</time>
      </trkpt>
      <trkpt lat="44.86758" lon="-0.45516">
        <ele>73</ele>
        <time>2026-03-14T22:07:38Z</time>
      </trkpt>
      <trkpt lat="44.86699" lon="-0.45506">
        <ele>74</ele>
        <time>2026-03-14T22:07:49Z</time>
      </trkpt>
      <trkpt lat="44.86689" lon="-0.45496">
        <ele>74</ele>
        <time>2026-03-14T22:07:51Z</time>
      </trkpt>
      <trkpt lat="44.86657" lon="-0.45403">
        <ele>75</ele>
        <time>2026-03-14T22:08:04Z</time>
      </trkpt>
      <trkpt lat="44.86653" lon="-0.4536">
        <ele>77</ele>
        <time>2026-03-14T22:08:09Z</time>
      </trkpt>
      <trkpt lat="44.86635" lon="-0.45197">
        <ele>78</ele>
        <time>2026-03-14T22:08:30Z</time>
      </trkpt>
      <trkpt lat="44.86629" lon="-0.45185">
        <ele>78</ele>
        <time>2026-03-14T22:08:32Z</time>
      </trkpt>
      <trkpt lat="44.86568" lon="-0.4516">
        <ele>80</ele>
        <time>2026-03-14T22:08:43Z</time>
      </trkpt>
      <trkpt lat="44.86579" lon="-0.45112">
        <ele>80</ele>
        <time>2026-03-14T22:08:50Z</time>
      </trkpt>
      <trkpt lat="44.86588" lon="-0.45081">
        <ele>80</ele>
        <time>2026-03-14T22:08:54Z</time>
      </trkpt>
      <trkpt lat="44.86598" lon="-0.45048">
        <ele>79</ele>
        <time>2026-03-14T22:08:59Z</time>
      </trkpt>
      <trkpt lat="44.86636" lon="-0.44914">
        <ele>80</ele>
        <time>2026-03-14T22:09:17Z</time>
      </trkpt>
      <trkpt lat="44.8667" lon="-0.44817">
        <ele>82</ele>
        <time>2026-03-14T22:09:30Z</time>
      </trkpt>
      <trkpt lat="44.86703" lon="-0.44728">
        <ele>84</ele>
        <time>2026-03-14T22:09:43Z</time>
      </trkpt>
      <trkpt lat="44.86734" lon="-0.44651">
        <ele>86</ele>
        <time>2026-03-14T22:09:54Z</time>
      </trkpt>
      <trkpt lat="44.86741" lon="-0.44628">
        <ele>86</ele>
        <time>2026-03-14T22:09:57Z</time>
      </trkpt>
      <trkpt lat="44.8675" lon="-0.4459">
        <ele>85</ele>
        <time>2026-03-14T22:10:02Z</time>
      </trkpt>
      <trkpt lat="44.86763" lon="-0.44546">
        <ele>86</ele>
        <time>2026-03-14T22:10:08Z</time>
      </trkpt>
      <trkpt lat="44.86816" lon="-0.44406">
        <ele>86</ele>
        <time>2026-03-14T22:10:28Z</time>
      </trkpt>
      <trkpt lat="44.86854" lon="-0.44312">
        <ele>86</ele>
        <time>2026-03-14T22:10:42Z</time>
      </trkpt>
      <trkpt lat="44.87017" lon="-0.43944">
        <ele>74</ele>
        <time>2026-03-14T22:11:37Z</time>
      </trkpt>
      <trkpt lat="44.8702" lon="-0.43936">
        <ele>73</ele>
        <time>2026-03-14T22:11:38Z</time>
      </trkpt>
      <trkpt lat="44.87107" lon="-0.43741">
        <ele>63</ele>
        <time>2026-03-14T22:12:07Z</time>
      </trkpt>
      <trkpt lat="44.87164" lon="-0.43618">
        <ele>63</ele>
        <time>2026-03-14T22:12:26Z</time>
      </trkpt>
      <trkpt lat="44.87166" lon="-0.43599">
        <ele>63</ele>
        <time>2026-03-14T22:12:28Z</time>
      </trkpt>
      <trkpt lat="44.87163" lon="-0.43585">
        <ele>63</ele>
        <time>2026-03-14T22:12:30Z</time>
      </trkpt>
      <trkpt lat="44.87156" lon="-0.43573">
        <ele>64</ele>
        <time>2026-03-14T22:12:32Z</time>
      </trkpt>
      <trkpt lat="44.87145" lon="-0.43565">
        <ele>64</ele>
        <time>2026-03-14T22:12:34Z</time>
      </trkpt>
      <trkpt lat="44.87083" lon="-0.43519">
        <ele>68</ele>
        <time>2026-03-14T22:12:46Z</time>
      </trkpt>
      <trkpt lat="44.86979" lon="-0.43443">
        <ele>74</ele>
        <time>2026-03-14T22:13:07Z</time>
      </trkpt>
      <trkpt lat="44.86968" lon="-0.43433">
        <ele>74</ele>
        <time>2026-03-14T22:13:10Z</time>
      </trkpt>
      <trkpt lat="44.86969" lon="-0.43416">
        <ele>74</ele>
        <time>2026-03-14T22:13:12Z</time>
      </trkpt>
      <trkpt lat="44.86976" lon="-0.43405">
        <ele>74</ele>
        <time>2026-03-14T22:13:14Z</time>
      </trkpt>
      <trkpt lat="44.87048" lon="-0.43342">
        <ele>71</ele>
        <time>2026-03-14T22:13:29Z</time>
      </trkpt>
      <trkpt lat="44.87115" lon="-0.43283">
        <ele>67</ele>
        <time>2026-03-14T22:13:43Z</time>
      </trkpt>
      <trkpt lat="44.87129" lon="-0.4327">
        <ele>66</ele>
        <time>2026-03-14T22:13:46Z</time>
      </trkpt>
      <trkpt lat="44.87214" lon="-0.43157">
        <ele>63</ele>
        <time>2026-03-14T22:14:06Z</time>
      </trkpt>
      <trkpt lat="44.87278" lon="-0.43076">
        <ele>61</ele>
        <time>2026-03-14T22:14:22Z</time>
      </trkpt>
      <trkpt lat="44.87289" lon="-0.43066">
        <ele>60</ele>
        <time>2026-03-14T22:14:24Z</time>
      </trkpt>
      <trkpt lat="44.87299" lon="-0.43067">
        <ele>59</ele>
        <time>2026-03-14T22:14:26Z</time>
      </trkpt>
      <trkpt lat="44.87334" lon="-0.431">
        <ele>57</ele>
        <time>2026-03-14T22:14:33Z</time>
      </trkpt>
      <trkpt lat="44.87343" lon="-0.43104">
        <ele>57</ele>
        <time>2026-03-14T22:14:35Z</time>
      </trkpt>
      <trkpt lat="44.87361" lon="-0.43112">
        <ele>57</ele>
        <time>2026-03-14T22:14:38Z</time>
      </trkpt>
      <trkpt lat="44.87382" lon="-0.43109">
        <ele>57</ele>
        <time>2026-03-14T22:14:42Z</time>
      </trkpt>
      <trkpt lat="44.87398" lon="-0.43091">
        <ele>56</ele>
        <time>2026-03-14T22:14:46Z</time>
      </trkpt>
      <trkpt lat="44.87419" lon="-0.43036">
        <ele>54</ele>
        <time>2026-03-14T22:14:54Z</time>
      </trkpt>
      <trkpt lat="44.87425" lon="-0.43016">
        <ele>53</ele>
        <time>2026-03-14T22:14:56Z</time>
      </trkpt>
      <trkpt lat="44.87434" lon="-0.42986">
        <ele>53</ele>
        <time>2026-03-14T22:15:01Z</time>
      </trkpt>
      <trkpt lat="44.87438" lon="-0.42966">
        <ele>52</ele>
        <time>2026-03-14T22:15:03Z</time>
      </trkpt>
      <trkpt lat="44.87438" lon="-0.4296">
        <ele>52</ele>
        <time>2026-03-14T22:15:04Z</time>
      </trkpt>
      <trkpt lat="44.87437" lon="-0.42946">
        <ele>52</ele>
        <time>2026-03-14T22:15:06Z</time>
      </trkpt>
      <trkpt lat="44.87426" lon="-0.42898">
        <ele>50</ele>
        <time>2026-03-14T22:15:12Z</time>
      </trkpt>
      <trkpt lat="44.87423" lon="-0.42874">
        <ele>50</ele>
        <time>2026-03-14T22:15:15Z</time>
      </trkpt>
      <trkpt lat="44.87418" lon="-0.42789">
        <ele>49</ele>
        <time>2026-03-14T22:15:26Z</time>
      </trkpt>
      <trkpt lat="44.87418" lon="-0.42779">
        <ele>49</ele>
        <time>2026-03-14T22:15:27Z</time>
      </trkpt>
      <trkpt lat="44.87419" lon="-0.42771">
        <ele>49</ele>
        <time>2026-03-14T22:15:28Z</time>
      </trkpt>
      <trkpt lat="44.87422" lon="-0.42766">
        <ele>49</ele>
        <time>2026-03-14T22:15:29Z</time>
      </trkpt>
      <trkpt lat="44.87426" lon="-0.42763">
        <ele>49</ele>
        <time>2026-03-14T22:15:30Z</time>
      </trkpt>
      <trkpt lat="44.87453" lon="-0.42756">
        <ele>49</ele>
        <time>2026-03-14T22:15:35Z</time>
      </trkpt>
      <trkpt lat="44.87458" lon="-0.42756">
        <ele>50</ele>
        <time>2026-03-14T22:15:36Z</time>
      </trkpt>
      <trkpt lat="44.87463" lon="-0.42771">
        <ele>50</ele>
        <time>2026-03-14T22:15:38Z</time>
      </trkpt>
      <trkpt lat="44.87468" lon="-0.42781">
        <ele>50</ele>
        <time>2026-03-14T22:15:39Z</time>
      </trkpt>
      <trkpt lat="44.87471" lon="-0.42788">
        <ele>50</ele>
        <time>2026-03-14T22:15:40Z</time>
      </trkpt>
      <trkpt lat="44.87489" lon="-0.42807">
        <ele>50</ele>
        <time>2026-03-14T22:15:44Z</time>
      </trkpt>
      <trkpt lat="44.87496" lon="-0.42814">
        <ele>51</ele>
        <time>2026-03-14T22:15:46Z</time>
      </trkpt>
      <trkpt lat="44.87496" lon="-0.42821">
        <ele>51</ele>
        <time>2026-03-14T22:15:47Z</time>
      </trkpt>
      <trkpt lat="44.87518" lon="-0.42841">
        <ele>52</ele>
        <time>2026-03-14T22:15:51Z</time>
      </trkpt>
      <trkpt lat="44.8752" lon="-0.42843">
        <ele>52</ele>
        <time>2026-03-14T22:15:52Z</time>
      </trkpt>
      <trkpt lat="44.87529" lon="-0.42851">
        <ele>53</ele>
        <time>2026-03-14T22:15:54Z</time>
      </trkpt>
      <trkpt lat="44.8754" lon="-0.42861">
        <ele>53</ele>
        <time>2026-03-14T22:15:56Z</time>
      </trkpt>
      <trkpt lat="44.87565" lon="-0.42882">
        <ele>54</ele>
        <time>2026-03-14T22:16:01Z</time>
      </trkpt>
      <trkpt lat="44.87586" lon="-0.42894">
        <ele>55</ele>
        <time>2026-03-14T22:16:05Z</time>
      </trkpt>
      <trkpt lat="44.87594" lon="-0.42894">
        <ele>55</ele>
        <time>2026-03-14T22:16:07Z</time>
      </trkpt>
      <trkpt lat="44.876" lon="-0.42894">
        <ele>55</ele>
        <time>2026-03-14T22:16:08Z</time>
      </trkpt>
      <trkpt lat="44.87602" lon="-0.42892">
        <ele>55</ele>
        <time>2026-03-14T22:16:08Z</time>
      </trkpt>
      <trkpt lat="44.87618" lon="-0.42882">
        <ele>55</ele>
        <time>2026-03-14T22:16:11Z</time>
      </trkpt>
      <trkpt lat="44.87627" lon="-0.42872">
        <ele>55</ele>
        <time>2026-03-14T22:16:13Z</time>
      </trkpt>
      <trkpt lat="44.87632" lon="-0.42861">
        <ele>55</ele>
        <time>2026-03-14T22:16:15Z</time>
      </trkpt>
      <trkpt lat="44.87639" lon="-0.42845">
        <ele>54</ele>
        <time>2026-03-14T22:16:17Z</time>
      </trkpt>
      <trkpt lat="44.87649" lon="-0.42812">
        <ele>54</ele>
        <time>2026-03-14T22:16:22Z</time>
      </trkpt>
      <trkpt lat="44.87649" lon="-0.42799">
        <ele>54</ele>
        <time>2026-03-14T22:16:23Z</time>
      </trkpt>
      <trkpt lat="44.87651" lon="-0.42789">
        <ele>53</ele>
        <time>2026-03-14T22:16:25Z</time>
      </trkpt>
      <trkpt lat="44.87654" lon="-0.42782">
        <ele>53</ele>
        <time>2026-03-14T22:16:26Z</time>
      </trkpt>
      <trkpt lat="44.87659" lon="-0.42779">
        <ele>53</ele>
        <time>2026-03-14T22:16:27Z</time>
      </trkpt>
      <trkpt lat="44.87664" lon="-0.42777">
        <ele>53</ele>
        <time>2026-03-14T22:16:28Z</time>
      </trkpt>
      <trkpt lat="44.87672" lon="-0.42777">
        <ele>53</ele>
        <time>2026-03-14T22:16:29Z</time>
      </trkpt>
      <trkpt lat="44.87683" lon="-0.42779">
        <ele>53</ele>
        <time>2026-03-14T22:16:31Z</time>
      </trkpt>
      <trkpt lat="44.87685" lon="-0.42778">
        <ele>53</ele>
        <time>2026-03-14T22:16:31Z</time>
      </trkpt>
      <trkpt lat="44.87686" lon="-0.42775">
        <ele>53</ele>
        <time>2026-03-14T22:16:32Z</time>
      </trkpt>
      <trkpt lat="44.87685" lon="-0.42771">
        <ele>53</ele>
        <time>2026-03-14T22:16:32Z</time>
      </trkpt>
      <trkpt lat="44.87685" lon="-0.42766">
        <ele>53</ele>
        <time>2026-03-14T22:16:33Z</time>
      </trkpt>
      <trkpt lat="44.87707" lon="-0.42764">
        <ele>53</ele>
        <time>2026-03-14T22:16:37Z</time>
      </trkpt>
      <trkpt lat="44.87742" lon="-0.42758">
        <ele>52</ele>
        <time>2026-03-14T22:16:43Z</time>
      </trkpt>
      <trkpt lat="44.87761" lon="-0.42755">
        <ele>51</ele>
        <time>2026-03-14T22:16:47Z</time>
      </trkpt>
      <trkpt lat="44.87778" lon="-0.42752">
        <ele>51</ele>
        <time>2026-03-14T22:16:50Z</time>
      </trkpt>
      <trkpt lat="44.8784" lon="-0.42742">
        <ele>48</ele>
        <time>2026-03-14T22:17:01Z</time>
      </trkpt>
      <trkpt lat="44.87859" lon="-0.42738">
        <ele>47</ele>
        <time>2026-03-14T22:17:04Z</time>
      </trkpt>
      <trkpt lat="44.8786" lon="-0.42745">
        <ele>47</ele>
        <time>2026-03-14T22:17:05Z</time>
      </trkpt>
      <trkpt lat="44.87905" lon="-0.42738">
        <ele>46</ele>
        <time>2026-03-14T22:17:13Z</time>
      </trkpt>
      <trkpt lat="44.87931" lon="-0.42737">
        <ele>46</ele>
        <time>2026-03-14T22:17:18Z</time>
      </trkpt>
      <trkpt lat="44.87974" lon="-0.42741">
        <ele>46</ele>
        <time>2026-03-14T22:17:25Z</time>
      </trkpt>
      <trkpt lat="44.87985" lon="-0.42746">
        <ele>46</ele>
        <time>2026-03-14T22:17:27Z</time>
      </trkpt>
      <trkpt lat="44.87989" lon="-0.42752">
        <ele>46</ele>
        <time>2026-03-14T22:17:29Z</time>
      </trkpt>
      <trkpt lat="44.87996" lon="-0.42766">
        <ele>46</ele>
        <time>2026-03-14T22:17:31Z</time>
      </trkpt>
      <trkpt lat="44.88005" lon="-0.42777">
        <ele>46</ele>
        <time>2026-03-14T22:17:33Z</time>
      </trkpt>
      <trkpt lat="44.88012" lon="-0.42783">
        <ele>46</ele>
        <time>2026-03-14T22:17:34Z</time>
      </trkpt>
      <trkpt lat="44.88022" lon="-0.42789">
        <ele>46</ele>
        <time>2026-03-14T22:17:36Z</time>
      </trkpt>
      <trkpt lat="44.88033" lon="-0.4279">
        <ele>46</ele>
        <time>2026-03-14T22:17:38Z</time>
      </trkpt>
      <trkpt lat="44.88092" lon="-0.42789">
        <ele>46</ele>
        <time>2026-03-14T22:17:49Z</time>
      </trkpt>
      <trkpt lat="44.88104" lon="-0.4279">
        <ele>46</ele>
        <time>2026-03-14T22:17:51Z</time>
      </trkpt>
      <trkpt lat="44.88121" lon="-0.42794">
        <ele>46</ele>
        <time>2026-03-14T22:17:54Z</time>
      </trkpt>
      <trkpt lat="44.88125" lon="-0.42795">
        <ele>46</ele>
        <time>2026-03-14T22:17:55Z</time>
      </trkpt>
      <trkpt lat="44.88216" lon="-0.42818">
        <ele>48</ele>
        <time>2026-03-14T22:18:11Z</time>
      </trkpt>
      <trkpt lat="44.88219" lon="-0.4282">
        <ele>48</ele>
        <time>2026-03-14T22:18:12Z</time>
        <extensions>
          <visugpx:TrkExtension xmlns:visugpx="https://www.visugpx.com/editgpx/">
            <visugpx:node>1</visugpx:node>
            </visugpx:TrkExtension>
        </extensions>
      </trkpt>
      <trkpt lat="44.86011" lon="-0.44369">
        <ele>78.6</ele>
        <extensions>
          <visugpx:TrkExtension xmlns:visugpx="https://www.visugpx.com/editgpx/">
            <visugpx:node>2</visugpx:node>
            </visugpx:TrkExtension>
        </extensions>
      </trkpt>
    </trkseg>
  </trk>
</gpx>